createdAt,value
2019-04-30T00:01:36.300Z,5.68
2019-04-30T00:06:45.387Z,6.08
2019-04-30T00:11:57.902Z,4.63
2019-04-30T00:17:01.635Z,5.52
2019-04-30T00:22:10.668Z,4.10
2019-04-30T00:27:23.807Z,4.73
2019-04-30T00:32:28.266Z,4.91
2019-04-30T00:37:37.196Z,4.89
2019-04-30T00:42:46.134Z,4.19
2019-04-30T00:47:57.151Z,5.34
2019-04-30T00:52:57.859Z,7.98
2019-04-30T00:58:05.915Z,4.84
2019-04-30T01:03:15.317Z,5.28
2019-04-30T01:08:27.709Z,5.91
2019-04-30T01:13:23.558Z,3.12
2019-04-30T01:18:32.502Z,5.03
2019-04-30T01:23:48.215Z,6.21
2019-04-30T01:28:53.725Z,6.51
2019-04-30T01:33:58.948Z,8.63
2019-04-30T01:39:07.002Z,6.19
2019-04-30T01:44:15.946Z,6.71
2019-04-30T01:49:26.659Z,6.43
2019-04-30T01:54:33.411Z,8.42
2019-04-30T01:59:42.507Z,5.77
2019-04-30T02:04:51.583Z,6.23
2019-04-30T02:10:00.566Z,5.40
2019-04-30T02:15:09.617Z,8.44
2019-04-30T02:20:18.633Z,8.45
2019-04-30T02:25:29.340Z,6.28
2019-04-30T02:30:35.921Z,6.96
2019-04-30T02:35:44.847Z,7.26
2019-04-30T02:40:53.777Z,8.99
2019-04-30T02:46:02.742Z,6.42
2019-04-30T02:51:11.693Z,10.43
2019-04-30T02:56:20.689Z,11.00
2019-04-30T03:01:30.464Z,7.35
2019-04-30T03:06:40.233Z,7.97
2019-04-30T03:11:46.515Z,6.91
2019-04-30T03:16:55.454Z,8.67
2019-04-30T03:22:04.404Z,7.78
2019-04-30T03:27:13.327Z,11.10
2019-04-30T03:32:23.098Z,9.44
2019-04-30T03:37:30.778Z,8.54
2019-04-30T03:42:39.781Z,8.31
2019-04-30T03:47:50.520Z,8.30
2019-04-30T03:53:00.221Z,8.19
2019-04-30T03:58:06.043Z,7.99
2019-04-30T04:03:15.009Z,9.08
2019-04-30T04:08:23.936Z,8.59
2019-04-30T04:13:33.265Z,7.69
2019-04-30T04:18:41.343Z,9.08
2019-04-30T04:23:50.290Z,8.51
2019-04-30T04:28:59.563Z,8.03
2019-04-30T04:34:09.257Z,8.68
2019-04-30T04:39:16.306Z,9.88
2019-04-30T04:44:25.259Z,15.31
2019-04-30T04:49:34.176Z,15.59
2019-04-30T04:54:43.124Z,15.90
2019-04-30T04:59:52.046Z,14.55
2019-04-30T05:05:01.003Z,13.53
2019-04-30T05:10:09.945Z,19.66
2019-04-30T05:15:19.494Z,17.34
2019-04-30T05:20:29.069Z,13.14
2019-04-30T05:25:35.822Z,17.11
2019-04-30T05:30:44.760Z,27.01
2019-04-30T05:35:53.779Z,18.13
2019-04-30T05:41:02.723Z,17.01
2019-04-30T05:46:14.057Z,19.63
2019-04-30T05:51:21.322Z,24.88
2019-04-30T05:56:30.379Z,17.20
2019-04-30T06:01:39.371Z,13.84
2019-04-30T06:06:45.783Z,24.81
2019-04-30T06:11:54.698Z,16.91
2019-04-30T06:17:03.647Z,16.13
2019-04-30T06:22:12.571Z,20.44
2019-04-30T06:27:21.523Z,18.30
2019-04-30T06:32:30.507Z,20.02
2019-04-30T06:37:39.460Z,13.29
2019-04-30T06:42:49.547Z,15.90
2019-04-30T06:47:58.698Z,21.79
2019-04-30T06:53:05.418Z,20.23
2019-04-30T06:58:16.396Z,17.80
2019-04-30T07:03:15.500Z,20.98
2019-04-30T07:08:36.201Z,15.10
2019-04-30T07:13:33.099Z,15.51
2019-04-30T07:18:42.083Z,16.95
2019-04-30T07:23:49.630Z,17.14
2019-04-30T07:28:59.814Z,15.18
2019-04-30T07:34:09.112Z,11.13
2019-04-30T07:39:15.666Z,16.82
2019-04-30T07:44:33.713Z,16.35
2019-04-30T07:49:47.094Z,14.73
2019-04-30T07:54:41.619Z,10.65
2019-04-30T07:59:50.586Z,25.25
2019-04-30T08:04:59.971Z,12.17
2019-04-30T08:10:08.750Z,18.97
2019-04-30T08:15:16.504Z,15.63
2019-04-30T08:20:25.563Z,18.78
2019-04-30T08:25:34.491Z,16.75
2019-04-30T08:30:43.598Z,11.68
2019-04-30T08:35:52.522Z,14.94
2019-04-30T08:41:01.584Z,15.75
2019-04-30T08:46:10.518Z,16.52
2019-04-30T08:51:19.911Z,14.35
2019-04-30T08:56:29.648Z,14.57
2019-04-30T09:01:38.586Z,14.30
2019-04-30T09:06:44.976Z,16.58
2019-04-30T09:11:55.808Z,17.25
2019-04-30T09:17:02.454Z,20.52
2019-04-30T09:22:15.065Z,20.37
2019-04-30T09:27:19.872Z,13.85
2019-04-30T09:32:29.221Z,14.62
2019-04-30T09:37:39.412Z,18.93
2019-04-30T09:42:45.810Z,18.22
2019-04-30T09:47:54.758Z,16.04
2019-04-30T09:53:03.741Z,14.98
2019-04-30T09:58:17.192Z,15.58
2019-04-30T10:03:21.686Z,24.21
2019-04-30T10:08:30.690Z,18.21
2019-04-30T10:13:38.310Z,17.84
2019-04-30T10:18:47.258Z,22.01
2019-04-30T10:24:10.002Z,21.43
2019-04-30T10:29:04.672Z,20.38
2019-04-30T10:34:13.627Z,19.55
2019-04-30T10:39:22.603Z,20.91
2019-04-30T10:44:31.534Z,9.96
2019-04-30T10:49:40.466Z,20.88
2019-04-30T10:54:49.695Z,22.65
2019-04-30T10:59:58.767Z,22.47
2019-04-30T11:05:06.913Z,27.40
2019-04-30T11:10:15.823Z,22.51
2019-04-30T11:15:25.382Z,21.40
2019-04-30T11:20:34.530Z,21.97
2019-04-30T11:25:43.795Z,24.29
2019-04-30T11:30:52.634Z,24.17
2019-04-30T11:36:02.967Z,19.33
2019-04-30T11:41:09.519Z,22.12
2019-04-30T11:46:18.741Z,22.33
2019-04-30T11:51:29.324Z,23.10
2019-04-30T11:56:38.281Z,28.78
2019-04-30T12:01:44.462Z,24.95
2019-04-30T12:06:53.425Z,22.14
2019-04-30T12:12:02.359Z,22.84
2019-04-30T12:17:11.383Z,21.44
2019-04-30T12:22:20.378Z,22.36
2019-04-30T12:27:29.267Z,26.13
2019-04-30T12:32:39.296Z,17.62
2019-04-30T12:37:46.704Z,24.99
2019-04-30T12:42:55.707Z,22.72
2019-04-30T12:48:04.626Z,19.90
2019-04-30T12:53:13.623Z,17.76
2019-04-30T12:58:22.562Z,17.23
2019-04-30T13:03:31.575Z,25.29
2019-04-30T13:08:41.022Z,21.00
2019-04-30T13:13:50.398Z,21.91
2019-04-30T13:18:59.302Z,24.43
2019-04-30T13:24:05.983Z,24.02
2019-04-30T13:29:14.913Z,17.11
2019-04-30T13:34:23.883Z,23.91
2019-04-30T13:39:31.456Z,18.83
2019-04-30T13:44:40.391Z,15.95
2019-04-30T13:49:49.559Z,16.23
2019-04-30T13:54:58.355Z,26.31
2019-04-30T14:00:08.668Z,18.68
2019-04-30T14:05:15.765Z,20.69
2019-04-30T14:10:24.740Z,12.60
2019-04-30T14:15:33.674Z,19.12
2019-04-30T14:20:42.678Z,19.65
2019-04-30T14:25:56.643Z,18.13
2019-04-30T14:31:00.111Z,17.51
2019-04-30T14:36:09.055Z,22.02
2019-04-30T14:41:18.343Z,14.08
2019-04-30T14:46:26.842Z,21.38
2019-04-30T14:51:35.007Z,26.21
2019-04-30T14:56:43.966Z,15.09
2019-04-30T15:01:52.998Z,15.80
2019-04-30T15:07:01.951Z,16.93
2019-04-30T15:12:11.338Z,21.26
2019-04-30T15:17:20.350Z,19.21
2019-04-30T15:22:31.284Z,17.18
2019-04-30T15:27:30.218Z,14.34
2019-04-30T15:32:39.649Z,25.19
2019-04-30T15:37:48.678Z,17.70
2019-04-30T15:42:56.238Z,18.92
2019-04-30T15:48:05.186Z,23.70
2019-04-30T15:53:14.243Z,16.29
2019-04-30T15:58:23.220Z,20.00
2019-04-30T16:03:32.223Z,15.78
2019-04-30T16:08:41.176Z,18.19
2019-04-30T16:13:50.175Z,20.36
2019-04-30T16:18:59.165Z,17.90
2019-04-30T16:24:08.696Z,16.98
2019-04-30T16:29:16.662Z,18.63
2019-04-30T16:34:25.595Z,8.80
2019-04-30T16:39:34.577Z,17.39
2019-04-30T16:44:43.564Z,15.36
2019-04-30T16:49:52.626Z,16.63
2019-04-30T16:55:01.546Z,17.20
2019-04-30T17:00:10.509Z,16.10
2019-04-30T17:05:19.863Z,19.95
2019-04-30T17:10:29.376Z,13.24
2019-04-30T17:15:36.483Z,16.18
2019-04-30T17:20:45.634Z,19.71
2019-04-30T17:25:54.575Z,16.92
2019-04-30T17:31:03.576Z,19.60
2019-04-30T17:36:12.487Z,14.62
2019-04-30T17:41:21.470Z,16.69
2019-04-30T17:46:30.659Z,19.06
2019-04-30T17:51:39.757Z,13.74
2019-04-30T17:56:47.240Z,18.53
2019-04-30T18:01:56.214Z,17.80
2019-04-30T18:07:05.209Z,24.01
2019-04-30T18:12:14.208Z,16.19
2019-04-30T18:17:23.301Z,15.64
2019-04-30T18:22:32.288Z,13.22
2019-04-30T18:27:45.988Z,18.20
2019-04-30T18:32:49.934Z,17.09
2019-04-30T18:37:58.909Z,16.41
2019-04-30T18:43:07.866Z,17.58
2019-04-30T18:48:16.854Z,19.19
2019-04-30T18:53:25.795Z,16.98
2019-04-30T18:58:40.008Z,16.05
2019-04-30T19:03:43.294Z,12.08
2019-04-30T19:08:52.235Z,15.67
2019-04-30T19:14:01.162Z,14.87
2019-04-30T19:19:12.665Z,15.71
2019-04-30T19:24:19.731Z,12.06
2019-04-30T19:29:27.163Z,17.20
2019-04-30T19:34:36.119Z,14.90
2019-04-30T19:39:45.130Z,15.06
2019-04-30T19:45:00.017Z,16.65
2019-04-30T19:50:02.562Z,15.28
2019-04-30T19:55:11.538Z,12.45
2019-04-30T20:00:20.509Z,15.63
2019-04-30T20:05:29.482Z,15.53
2019-04-30T20:10:39.878Z,13.40
2019-04-30T20:15:49.260Z,15.60
2019-04-30T20:20:55.414Z,15.50
2019-04-30T20:26:04.430Z,11.69
2019-04-30T20:31:13.362Z,14.11
2019-04-30T20:36:22.398Z,16.78
2019-04-30T20:41:31.382Z,18.78
2019-04-30T20:46:40.422Z,14.20
2019-04-30T20:51:55.541Z,12.20
2019-04-30T20:56:59.011Z,15.01
2019-04-30T21:02:06.279Z,21.11
2019-04-30T21:07:15.229Z,12.85
2019-04-30T21:12:24.159Z,13.02
2019-04-30T21:17:33.119Z,12.05
2019-04-30T21:22:42.034Z,15.11
2019-04-30T21:27:51.044Z,14.81
2019-04-30T21:33:00.000Z,21.01
2019-04-30T21:38:09.447Z,16.58
2019-04-30T21:43:17.475Z,13.01
2019-04-30T21:48:26.439Z,15.63
2019-04-30T21:53:35.387Z,12.02
2019-04-30T21:58:44.346Z,14.82
2019-04-30T22:03:53.276Z,16.18
2019-04-30T22:09:02.251Z,13.74
2019-04-30T22:14:11.207Z,14.35
2019-04-30T22:19:20.155Z,12.53
2019-04-30T22:24:30.509Z,13.30
2019-04-30T22:29:41.387Z,13.59
2019-04-30T22:34:46.027Z,11.41
2019-04-30T22:39:54.950Z,13.59
2019-04-30T22:45:03.903Z,12.27
2019-04-30T22:50:12.818Z,12.07
2019-04-30T22:55:21.738Z,20.27
2019-04-30T23:00:30.684Z,14.68
2019-04-30T23:05:39.676Z,12.57
2019-04-30T23:10:48.734Z,12.84
2019-04-30T23:15:57.723Z,12.13
2019-04-30T23:21:06.699Z,10.89
2019-04-30T23:26:15.618Z,16.28
2019-04-30T23:31:24.587Z,15.05
2019-04-30T23:36:33.561Z,19.92
2019-04-30T23:41:42.526Z,13.81
2019-04-30T23:46:51.498Z,13.39
2019-04-30T23:52:00.431Z,14.13
2019-04-30T23:57:09.414Z,18.08
